sensor_id;sensor_type;location;lat;lon;timestamp;P1;durP1;ratioP1;P2;durP2;ratioP2
19617;SDS011;9956;51.006;13.670;2023-10-19T00:03:30;11.52;;;6.57;;
19617;SDS011;9956;51.006;13.670;2023-10-19T00:08:30;10.52;;;6.38;;
19617;SDS011;9956;51.006;13.670;2023-10-19T00:13:51;9.13;;;6.13;;
19617;SDS011;9956;51.006;13.670;2023-10-19T00:18:54;10.68;;;6.53;;
19617;SDS011;9956;51.006;13.670;2023-10-19T00:23:59;7.18;;;5.93;;
19617;SDS011;9956;51.006;13.670;2023-10-19T00:29:04;10.38;;;6.45;;
19617;SDS011;9956;51.006;13.670;2023-10-19T00:34:28;8.45;;;6.55;;
19617;SDS011;9956;51.006;13.670;2023-10-19T00:39:28;9.30;;;6.15;;
19617;SDS011;9956;51.006;13.670;2023-10-19T00:44:40;9.35;;;6.07;;
19617;SDS011;9956;51.006;13.670;2023-10-19T00:49:49;6.95;;;5.53;;
19617;SDS011;9956;51.006;13.670;2023-10-19T00:54:49;6.53;;;5.63;;
19617;SDS011;9956;51.006;13.670;2023-10-19T00:59:51;8.10;;;6.28;;
19617;SDS011;9956;51.006;13.670;2023-10-19T01:04:58;7.40;;;6.18;;
19617;SDS011;9956;51.006;13.670;2023-10-19T01:10:01;8.70;;;6.97;;
19617;SDS011;9956;51.006;13.670;2023-10-19T01:20:14;9.25;;;5.78;;
19617;SDS011;9956;51.006;13.670;2023-10-19T01:25:18;12.50;;;5.93;;
19617;SDS011;9956;51.006;13.670;2023-10-19T01:30:20;8.57;;;6.57;;
19617;SDS011;9956;51.006;13.670;2023-10-19T01:35:21;10.18;;;6.72;;
19617;SDS011;9956;51.006;13.670;2023-10-19T01:40:22;8.52;;;6.65;;
19617;SDS011;9956;51.006;13.670;2023-10-19T01:45:23;9.73;;;6.97;;
19617;SDS011;9956;51.006;13.670;2023-10-19T01:50:24;8.35;;;6.90;;
19617;SDS011;9956;51.006;13.670;2023-10-19T01:55:24;8.30;;;7.00;;
19617;SDS011;9956;51.006;13.670;2023-10-19T02:00:26;8.15;;;7.20;;
19617;SDS011;9956;51.006;13.670;2023-10-19T02:05:27;9.95;;;7.38;;
19617;SDS011;9956;51.006;13.670;2023-10-19T02:10:33;11.50;;;7.50;;
19617;SDS011;9956;51.006;13.670;2023-10-19T02:15:36;11.98;;;8.32;;
19617;SDS011;9956;51.006;13.670;2023-10-19T02:20:36;10.55;;;7.97;;
19617;SDS011;9956;51.006;13.670;2023-10-19T02:25:41;9.98;;;8.48;;
19617;SDS011;9956;51.006;13.670;2023-10-19T02:30:42;10.48;;;8.20;;
19617;SDS011;9956;51.006;13.670;2023-10-19T02:35:42;9.48;;;7.93;;
19617;SDS011;9956;51.006;13.670;2023-10-19T02:40:43;9.10;;;7.47;;
19617;SDS011;9956;51.006;13.670;2023-10-19T02:45:46;12.88;;;8.43;;
19617;SDS011;9956;51.006;13.670;2023-10-19T02:50:48;10.07;;;8.38;;
19617;SDS011;9956;51.006;13.670;2023-10-19T02:55:49;13.00;;;9.10;;
19617;SDS011;9956;51.006;13.670;2023-10-19T03:00:51;10.15;;;8.38;;
19617;SDS011;9956;51.006;13.670;2023-10-19T03:05:52;12.18;;;9.48;;
19617;SDS011;9956;51.006;13.670;2023-10-19T03:10:56;10.82;;;9.60;;
19617;SDS011;9956;51.006;13.670;2023-10-19T03:16:14;10.52;;;9.38;;
19617;SDS011;9956;51.006;13.670;2023-10-19T03:21:18;11.75;;;9.75;;
19617;SDS011;9956;51.006;13.670;2023-10-19T03:26:23;12.40;;;9.38;;
19617;SDS011;9956;51.006;13.670;2023-10-19T03:31:30;12.10;;;10.73;;
19617;SDS011;9956;51.006;13.670;2023-10-19T03:36:33;17.20;;;10.20;;
19617;SDS011;9956;51.006;13.670;2023-10-19T03:41:35;11.98;;;9.95;;
19617;SDS011;9956;51.006;13.670;2023-10-19T03:46:36;12.60;;;10.70;;
19617;SDS011;9956;51.006;13.670;2023-10-19T03:51:37;15.43;;;12.85;;
19617;SDS011;9956;51.006;13.670;2023-10-19T03:56:58;18.00;;;14.05;;
19617;SDS011;9956;51.006;13.670;2023-10-19T04:02:02;25.20;;;16.73;;
19617;SDS011;9956;51.006;13.670;2023-10-19T04:07:12;26.80;;;18.83;;
19617;SDS011;9956;51.006;13.670;2023-10-19T04:12:31;27.33;;;18.77;;
19617;SDS011;9956;51.006;13.670;2023-10-19T04:17:32;27.90;;;22.13;;
19617;SDS011;9956;51.006;13.670;2023-10-19T04:22:33;39.38;;;25.55;;
19617;SDS011;9956;51.006;13.670;2023-10-19T04:27:34;37.97;;;27.15;;
19617;SDS011;9956;51.006;13.670;2023-10-19T04:32:36;42.28;;;30.15;;
19617;SDS011;9956;51.006;13.670;2023-10-19T04:37:39;50.67;;;36.38;;
19617;SDS011;9956;51.006;13.670;2023-10-19T04:42:42;52.97;;;34.88;;
19617;SDS011;9956;51.006;13.670;2023-10-19T04:47:42;55.17;;;32.35;;
19617;SDS011;9956;51.006;13.670;2023-10-19T04:52:43;54.88;;;35.55;;
19617;SDS011;9956;51.006;13.670;2023-10-19T04:57:43;63.15;;;35.70;;
19617;SDS011;9956;51.006;13.670;2023-10-19T05:02:44;52.45;;;34.03;;
19617;SDS011;9956;51.006;13.670;2023-10-19T05:07:44;63.53;;;36.58;;
19617;SDS011;9956;51.006;13.670;2023-10-19T05:12:45;63.95;;;37.35;;
19617;SDS011;9956;51.006;13.670;2023-10-19T05:17:45;49.25;;;35.53;;
19617;SDS011;9956;51.006;13.670;2023-10-19T05:22:46;75.15;;;37.03;;
19617;SDS011;9956;51.006;13.670;2023-10-19T05:27:47;65.45;;;36.55;;
19617;SDS011;9956;51.006;13.670;2023-10-19T05:32:47;67.43;;;38.88;;
19617;SDS011;9956;51.006;13.670;2023-10-19T05:37:49;62.50;;;38.92;;
19617;SDS011;9956;51.006;13.670;2023-10-19T05:42:50;70.47;;;42.30;;
19617;SDS011;9956;51.006;13.670;2023-10-19T05:47:50;75.90;;;43.38;;
19617;SDS011;9956;51.006;13.670;2023-10-19T05:52:51;84.43;;;47.45;;
19617;SDS011;9956;51.006;13.670;2023-10-19T05:57:55;90.75;;;48.60;;
19617;SDS011;9956;51.006;13.670;2023-10-19T06:02:56;94.47;;;49.63;;
19617;SDS011;9956;51.006;13.670;2023-10-19T06:07:57;109.25;;;50.63;;
19617;SDS011;9956;51.006;13.670;2023-10-19T06:13:00;112.28;;;52.03;;
19617;SDS011;9956;51.006;13.670;2023-10-19T06:18:00;119.30;;;52.80;;
19617;SDS011;9956;51.006;13.670;2023-10-19T06:23:00;115.22;;;57.20;;
19617;SDS011;9956;51.006;13.670;2023-10-19T06:28:04;148.02;;;58.78;;
19617;SDS011;9956;51.006;13.670;2023-10-19T06:33:06;147.05;;;60.55;;
19617;SDS011;9956;51.006;13.670;2023-10-19T06:38:08;116.95;;;57.38;;
19617;SDS011;9956;51.006;13.670;2023-10-19T06:43:09;141.18;;;60.17;;
19617;SDS011;9956;51.006;13.670;2023-10-19T06:48:11;124.25;;;56.20;;
19617;SDS011;9956;51.006;13.670;2023-10-19T06:53:12;104.10;;;56.55;;
19617;SDS011;9956;51.006;13.670;2023-10-19T06:58:12;157.07;;;59.75;;
19617;SDS011;9956;51.006;13.670;2023-10-19T07:03:16;103.43;;;54.78;;
19617;SDS011;9956;51.006;13.670;2023-10-19T07:08:17;109.28;;;55.63;;
19617;SDS011;9956;51.006;13.670;2023-10-19T07:13:19;151.45;;;58.03;;
19617;SDS011;9956;51.006;13.670;2023-10-19T07:18:20;124.25;;;55.80;;
19617;SDS011;9956;51.006;13.670;2023-10-19T07:23:21;118.15;;;57.17;;
19617;SDS011;9956;51.006;13.670;2023-10-19T07:28:22;137.95;;;58.72;;
19617;SDS011;9956;51.006;13.670;2023-10-19T07:33:26;103.97;;;53.40;;
19617;SDS011;9956;51.006;13.670;2023-10-19T07:38:26;153.52;;;59.97;;
19617;SDS011;9956;51.006;13.670;2023-10-19T07:43:29;122.88;;;58.00;;
19617;SDS011;9956;51.006;13.670;2023-10-19T07:48:29;168.93;;;63.00;;
19617;SDS011;9956;51.006;13.670;2023-10-19T07:53:30;173.70;;;66.00;;
19617;SDS011;9956;51.006;13.670;2023-10-19T07:58:30;130.98;;;63.47;;
19617;SDS011;9956;51.006;13.670;2023-10-19T08:03:31;171.73;;;64.55;;
19617;SDS011;9956;51.006;13.670;2023-10-19T08:08:32;144.98;;;63.25;;
19617;SDS011;9956;51.006;13.670;2023-10-19T08:13:35;121.40;;;58.40;;
19617;SDS011;9956;51.006;13.670;2023-10-19T08:18:36;141.18;;;62.67;;
19617;SDS011;9956;51.006;13.670;2023-10-19T08:23:36;189.18;;;66.57;;
19617;SDS011;9956;51.006;13.670;2023-10-19T08:28:36;119.68;;;60.13;;
19617;SDS011;9956;51.006;13.670;2023-10-19T08:33:37;126.40;;;62.45;;
19617;SDS011;9956;51.006;13.670;2023-10-19T08:38:39;100.57;;;54.63;;
19617;SDS011;9956;51.006;13.670;2023-10-19T08:43:39;162.02;;;62.75;;
19617;SDS011;9956;51.006;13.670;2023-10-19T08:48:40;112.65;;;57.58;;
19617;SDS011;9956;51.006;13.670;2023-10-19T08:53:41;107.40;;;57.20;;
19617;SDS011;9956;51.006;13.670;2023-10-19T08:58:44;99.05;;;52.55;;
19617;SDS011;9956;51.006;13.670;2023-10-19T09:03:46;144.43;;;60.40;;
19617;SDS011;9956;51.006;13.670;2023-10-19T09:08:47;118.97;;;57.55;;
19617;SDS011;9956;51.006;13.670;2023-10-19T09:13:53;99.57;;;56.10;;
19617;SDS011;9956;51.006;13.670;2023-10-19T09:18:53;102.38;;;50.88;;
19617;SDS011;9956;51.006;13.670;2023-10-19T09:23:57;68.85;;;46.90;;
19617;SDS011;9956;51.006;13.670;2023-10-19T09:28:59;108.55;;;53.88;;
19617;SDS011;9956;51.006;13.670;2023-10-19T09:34:00;83.10;;;48.15;;
19617;SDS011;9956;51.006;13.670;2023-10-19T09:39:03;54.78;;;39.45;;
19617;SDS011;9956;51.006;13.670;2023-10-19T09:44:04;52.33;;;40.13;;
19617;SDS011;9956;51.006;13.670;2023-10-19T09:49:10;51.00;;;37.33;;
19617;SDS011;9956;51.006;13.670;2023-10-19T09:54:14;42.20;;;30.38;;
19617;SDS011;9956;51.006;13.670;2023-10-19T09:59:38;33.63;;;27.90;;
19617;SDS011;9956;51.006;13.670;2023-10-19T10:04:41;31.42;;;26.65;;
19617;SDS011;9956;51.006;13.670;2023-10-19T10:09:42;46.92;;;30.08;;
19617;SDS011;9956;51.006;13.670;2023-10-19T10:15:00;33.17;;;25.48;;
19617;SDS011;9956;51.006;13.670;2023-10-19T10:25:27;31.60;;;26.70;;
19617;SDS011;9956;51.006;13.670;2023-10-19T10:30:28;36.22;;;29.20;;
19617;SDS011;9956;51.006;13.670;2023-10-19T10:40:48;29.52;;;26.40;;
19617;SDS011;9956;51.006;13.670;2023-10-19T10:45:49;25.50;;;22.75;;
19617;SDS011;9956;51.006;13.670;2023-10-19T10:50:50;34.08;;;29.23;;
19617;SDS011;9956;51.006;13.670;2023-10-19T10:55:51;29.75;;;26.55;;
19617;SDS011;9956;51.006;13.670;2023-10-19T11:00:51;43.28;;;31.67;;
19617;SDS011;9956;51.006;13.670;2023-10-19T11:05:52;43.25;;;31.27;;
19617;SDS011;9956;51.006;13.670;2023-10-19T11:10:52;30.50;;;24.63;;
19617;SDS011;9956;51.006;13.670;2023-10-19T11:15:54;22.35;;;20.08;;
19617;SDS011;9956;51.006;13.670;2023-10-19T11:20:56;25.63;;;23.02;;
19617;SDS011;9956;51.006;13.670;2023-10-19T11:25:59;34.25;;;24.70;;
19617;SDS011;9956;51.006;13.670;2023-10-19T11:31:12;23.35;;;20.95;;
19617;SDS011;9956;51.006;13.670;2023-10-19T11:36:17;25.33;;;22.80;;
19617;SDS011;9956;51.006;13.670;2023-10-19T11:41:20;47.90;;;26.08;;
19617;SDS011;9956;51.006;13.670;2023-10-19T11:46:20;20.75;;;18.83;;
19617;SDS011;9956;51.006;13.670;2023-10-19T11:51:26;25.27;;;22.65;;
19617;SDS011;9956;51.006;13.670;2023-10-19T11:56:26;35.90;;;26.55;;
19617;SDS011;9956;51.006;13.670;2023-10-19T12:01:27;43.28;;;30.85;;
19617;SDS011;9956;51.006;13.670;2023-10-19T12:06:29;30.05;;;26.85;;
19617;SDS011;9956;51.006;13.670;2023-10-19T12:11:30;32.92;;;28.88;;
19617;SDS011;9956;51.006;13.670;2023-10-19T12:16:30;34.42;;;29.15;;
19617;SDS011;9956;51.006;13.670;2023-10-19T12:21:35;59.53;;;32.80;;
19617;SDS011;9956;51.006;13.670;2023-10-19T12:26:37;43.15;;;31.65;;
19617;SDS011;9956;51.006;13.670;2023-10-19T12:31:38;47.33;;;32.42;;
19617;SDS011;9956;51.006;13.670;2023-10-19T12:36:39;65.50;;;34.72;;
19617;SDS011;9956;51.006;13.670;2023-10-19T12:41:41;52.45;;;33.95;;
19617;SDS011;9956;51.006;13.670;2023-10-19T12:46:41;43.30;;;30.80;;
19617;SDS011;9956;51.006;13.670;2023-10-19T12:51:42;48.25;;;33.53;;
19617;SDS011;9956;51.006;13.670;2023-10-19T12:56:44;41.20;;;34.50;;
19617;SDS011;9956;51.006;13.670;2023-10-19T13:01:45;39.30;;;34.40;;
19617;SDS011;9956;51.006;13.670;2023-10-19T13:06:48;57.42;;;35.95;;
19617;SDS011;9956;51.006;13.670;2023-10-19T13:11:49;40.65;;;33.70;;
19617;SDS011;9956;51.006;13.670;2023-10-19T13:16:52;36.88;;;32.78;;
19617;SDS011;9956;51.006;13.670;2023-10-19T13:21:54;36.10;;;30.95;;
19617;SDS011;9956;51.006;13.670;2023-10-19T13:26:54;33.70;;;28.58;;
19617;SDS011;9956;51.006;13.670;2023-10-19T13:31:55;33.17;;;29.77;;
19617;SDS011;9956;51.006;13.670;2023-10-19T13:36:56;34.78;;;29.08;;
19617;SDS011;9956;51.006;13.670;2023-10-19T13:41:57;30.83;;;27.73;;
19617;SDS011;9956;51.006;13.670;2023-10-19T13:46:58;28.63;;;25.63;;
19617;SDS011;9956;51.006;13.670;2023-10-19T13:51:59;26.58;;;23.95;;
19617;SDS011;9956;51.006;13.670;2023-10-19T13:57:00;27.17;;;24.45;;
19617;SDS011;9956;51.006;13.670;2023-10-19T14:02:00;28.05;;;25.15;;
19617;SDS011;9956;51.006;13.670;2023-10-19T14:07:01;28.38;;;25.60;;
19617;SDS011;9956;51.006;13.670;2023-10-19T14:12:01;28.30;;;25.50;;
19617;SDS011;9956;51.006;13.670;2023-10-19T14:17:04;27.05;;;24.38;;
19617;SDS011;9956;51.006;13.670;2023-10-19T14:22:05;27.80;;;25.17;;
19617;SDS011;9956;51.006;13.670;2023-10-19T14:27:07;28.38;;;25.58;;
19617;SDS011;9956;51.006;13.670;2023-10-19T14:32:09;25.60;;;23.17;;
19617;SDS011;9956;51.006;13.670;2023-10-19T14:37:10;27.50;;;24.85;;
19617;SDS011;9956;51.006;13.670;2023-10-19T14:42:10;29.17;;;26.15;;
19617;SDS011;9956;51.006;13.670;2023-10-19T14:47:11;30.52;;;27.40;;
19617;SDS011;9956;51.006;13.670;2023-10-19T14:52:11;28.05;;;25.33;;
19617;SDS011;9956;51.006;13.670;2023-10-19T14:57:12;28.13;;;25.33;;
19617;SDS011;9956;51.006;13.670;2023-10-19T15:02:13;29.08;;;26.20;;
19617;SDS011;9956;51.006;13.670;2023-10-19T15:07:14;29.98;;;27.00;;
19617;SDS011;9956;51.006;13.670;2023-10-19T15:12:14;30.88;;;27.58;;
19617;SDS011;9956;51.006;13.670;2023-10-19T15:17:14;30.15;;;27.17;;
19617;SDS011;9956;51.006;13.670;2023-10-19T15:22:15;27.45;;;24.65;;
19617;SDS011;9956;51.006;13.670;2023-10-19T15:27:16;37.33;;;33.55;;
19617;SDS011;9956;51.006;13.670;2023-10-19T15:32:18;49.33;;;43.75;;
19617;SDS011;9956;51.006;13.670;2023-10-19T15:37:20;41.75;;;37.58;;
19617;SDS011;9956;51.006;13.670;2023-10-19T15:42:20;40.88;;;36.65;;
19617;SDS011;9956;51.006;13.670;2023-10-19T15:47:22;41.47;;;37.10;;
19617;SDS011;9956;51.006;13.670;2023-10-19T15:52:24;48.65;;;43.38;;
19617;SDS011;9956;51.006;13.670;2023-10-19T15:57:25;44.97;;;38.70;;
19617;SDS011;9956;51.006;13.670;2023-10-19T16:02:26;42.88;;;37.97;;
19617;SDS011;9956;51.006;13.670;2023-10-19T16:07:26;49.15;;;43.95;;
19617;SDS011;9956;51.006;13.670;2023-10-19T16:12:27;47.08;;;40.33;;
19617;SDS011;9956;51.006;13.670;2023-10-19T16:17:27;44.08;;;39.35;;
19617;SDS011;9956;51.006;13.670;2023-10-19T16:22:28;48.13;;;41.80;;
19617;SDS011;9956;51.006;13.670;2023-10-19T16:27:29;48.25;;;39.58;;
19617;SDS011;9956;51.006;13.670;2023-10-19T16:32:29;50.45;;;43.03;;
19617;SDS011;9956;51.006;13.670;2023-10-19T16:37:30;56.42;;;47.70;;
19617;SDS011;9956;51.006;13.670;2023-10-19T16:42:31;50.13;;;42.92;;
19617;SDS011;9956;51.006;13.670;2023-10-19T16:47:32;46.00;;;38.30;;
19617;SDS011;9956;51.006;13.670;2023-10-19T16:52:32;43.17;;;36.72;;
19617;SDS011;9956;51.006;13.670;2023-10-19T16:57:34;43.85;;;35.63;;
19617;SDS011;9956;51.006;13.670;2023-10-19T17:02:35;43.65;;;35.85;;
19617;SDS011;9956;51.006;13.670;2023-10-19T17:07:35;49.38;;;42.75;;
19617;SDS011;9956;51.006;13.670;2023-10-19T17:12:35;45.50;;;37.65;;
19617;SDS011;9956;51.006;13.670;2023-10-19T17:17:37;44.95;;;36.80;;
19617;SDS011;9956;51.006;13.670;2023-10-19T17:22:37;44.75;;;36.92;;
19617;SDS011;9956;51.006;13.670;2023-10-19T17:27:38;45.50;;;35.92;;
19617;SDS011;9956;51.006;13.670;2023-10-19T17:32:41;45.90;;;38.00;;
19617;SDS011;9956;51.006;13.670;2023-10-19T17:37:42;48.05;;;40.20;;
19617;SDS011;9956;51.006;13.670;2023-10-19T17:42:42;48.88;;;39.95;;
19617;SDS011;9956;51.006;13.670;2023-10-19T17:47:43;54.92;;;44.10;;
19617;SDS011;9956;51.006;13.670;2023-10-19T17:52:43;89.43;;;65.63;;
19617;SDS011;9956;51.006;13.670;2023-10-19T17:57:44;64.35;;;49.75;;
19617;SDS011;9956;51.006;13.670;2023-10-19T18:02:50;50.00;;;39.20;;
19617;SDS011;9956;51.006;13.670;2023-10-19T18:07:51;56.28;;;45.50;;
19617;SDS011;9956;51.006;13.670;2023-10-19T18:12:53;50.38;;;43.67;;
19617;SDS011;9956;51.006;13.670;2023-10-19T18:17:54;51.55;;;43.00;;
19617;SDS011;9956;51.006;13.670;2023-10-19T18:22:55;43.47;;;38.17;;
19617;SDS011;9956;51.006;13.670;2023-10-19T18:27:56;48.83;;;40.47;;
19617;SDS011;9956;51.006;13.670;2023-10-19T18:32:57;49.60;;;40.03;;
19617;SDS011;9956;51.006;13.670;2023-10-19T18:37:57;49.92;;;41.28;;
19617;SDS011;9956;51.006;13.670;2023-10-19T18:42:58;49.42;;;41.30;;
19617;SDS011;9956;51.006;13.670;2023-10-19T18:47:59;45.25;;;37.72;;
19617;SDS011;9956;51.006;13.670;2023-10-19T18:52:59;49.75;;;39.22;;
19617;SDS011;9956;51.006;13.670;2023-10-19T18:58:04;52.08;;;39.03;;
19617;SDS011;9956;51.006;13.670;2023-10-19T19:03:04;45.30;;;36.00;;
19617;SDS011;9956;51.006;13.670;2023-10-19T19:08:06;46.05;;;37.35;;
19617;SDS011;9956;51.006;13.670;2023-10-19T19:13:08;49.40;;;37.85;;
19617;SDS011;9956;51.006;13.670;2023-10-19T19:18:10;45.67;;;37.45;;
19617;SDS011;9956;51.006;13.670;2023-10-19T19:23:11;44.03;;;35.30;;
